Time;durP1;ratioP1;P1;durP2;ratioP2;P2;SDS_P1;SDS_P2;PMS_P1;PMS_P2;Temp;Humidity;BMP_temperature;BMP_pressure;BME280_temperature;BME280_humidity;BME280_pressure;Samples;Min_cycle;Max_cycle;Signal;HPM_P1;HPM_P2
2023/06/27 00:01:39;;;;;;;;;;;;;;;16.47;54.60;100442.78;5046410;28;1052;-48
2023/06/27 00:04:08;;;;;;;;;;;;;;;16.76;55.85;100442.09;5059497;28;1253;-49
2023/06/27 00:06:37;;;;;;;;;;;;;;;17.67;57.24;100447.25;5059183;28;1155;-46
2023/06/27 00:09:05;;;;;;;;;;;;;;;17.20;56.96;100451.47;5059496;28;1163;-49
2023/06/27 00:11:30;;;;;;;;;;;;;;;16.97;56.44;100448.31;5055471;28;1913;-46
2023/06/27 00:13:58;;;;;;;;;;;;;;;16.90;55.90;100440.38;5039256;28;1218;-46
2023/06/27 00:16:27;;;;;;;;;;;;;;;16.81;55.65;100443.97;5056768;28;1059;-46
2023/06/27 00:18:53;;;;;;;;;;;;;;;16.77;55.24;100444.56;5059404;28;1118;-53
2023/06/27 00:21:18;;;;;;;;;;;;;;;16.77;55.01;100440.97;5059235;28;1151;-48
2023/06/27 00:23:44;;;;;;;;;;;;;;;16.65;54.85;100449.56;5058754;28;1207;-52
2023/06/27 00:26:10;;;;;;;;;;;;;;;16.63;54.90;100440.75;5028223;28;1061;-50
2023/06/27 00:28:35;;;;;;;;;;;;;;;16.63;54.58;100439.94;5058943;28;1135;-49
2023/06/27 00:31:02;;;;;;;;;;;;;;;16.56;54.60;100441.09;5041214;28;1975;-51
2023/06/27 00:33:27;;;;;;;;;;;;;;;16.46;54.71;100441.13;5059247;28;1140;-52
2023/06/27 00:35:53;;;;;;;;;;;;;;;16.47;54.75;100448.25;5034629;28;1183;-49
2023/06/27 00:38:18;;;;;;;;;;;;;;;16.48;54.53;100438.09;5027368;28;1399;-50
2023/06/27 00:40:44;;;;;;;;;;;;;;;16.72;55.97;100436.34;5040922;28;1430;-51
2023/06/27 00:43:09;;;;;;;;;;;;;;;17.62;56.90;100439.03;5040874;28;1514;-51
2023/06/27 00:45:35;;;;;;;;;;;;;;;17.07;57.08;100434.50;5040363;28;2434;-47
2023/06/27 00:48:00;;;;;;;;;;;;;;;16.93;56.48;100441.75;5058727;28;1134;-48
2023/06/27 00:50:27;;;;;;;;;;;;;;;16.80;55.95;100434.09;5027280;28;1910;-51
2023/06/27 00:52:53;;;;;;;;;;;;;;;16.82;55.61;100440.13;5041228;28;1211;-49
2023/06/27 00:55:19;;;;;;;;;;;;;;;16.72;55.23;100428.09;5040208;28;1111;-48
2023/06/27 00:57:46;;;;;;;;;;;;;;;16.69;55.15;100434.16;5047518;28;1020;-49
2023/06/27 01:00:12;;;;;;;;;;;;;;;16.58;55.04;100432.56;5046529;28;1242;-49
2023/06/27 01:02:38;;;;;;;;;;;;;;;16.49;55.19;100432.31;5058631;28;1163;-47
2023/06/27 01:05:04;;;;;;;;;;;;;;;16.51;54.92;100434.78;5058488;28;1079;-49
2023/06/27 01:07:32;;;;;;;;;;;;;;;16.52;54.57;100423.53;5040577;28;1116;-45
2023/06/27 01:10:03;;;;;;;;;;;;;;;16.45;54.54;100424.94;5058214;28;1983;-46
2023/06/27 01:12:31;;;;;;;;;;;;;;;17.29;57.23;100427.75;5040323;28;1523;-48
2023/06/27 01:14:57;;;;;;;;;;;;;;;17.32;57.21;100429.09;5027044;28;1083;-47
2023/06/27 01:17:23;;;;;;;;;;;;;;;17.00;56.90;100430.41;5040169;28;2204;-47
2023/06/27 01:19:52;;;;;;;;;;;;;;;16.86;56.29;100427.50;5023518;28;1192;-44
2023/06/27 01:22:18;;;;;;;;;;;;;;;16.84;55.63;100424.19;5040077;28;2353;-47
2023/06/27 01:24:44;;;;;;;;;;;;;;;16.75;55.20;100416.53;5032364;28;1139;-47
2023/06/27 01:27:13;;;;;;;;;;;;;;;16.75;54.91;100422.03;5040153;28;1060;-47
2023/06/27 01:29:40;;;;;;;;;;;;;;;16.66;55.02;100418.25;5057653;28;1971;-45
2023/06/27 01:32:15;;;;;;;;;;;;;;;16.56;54.93;100415.56;5045269;28;1103;-50
2023/06/27 01:35:08;;;;;;;;;;;;;;;16.46;55.00;100416.41;5008197;28;1099;-46
2023/06/27 01:37:36;;;;;;;;;;;;;;;16.56;54.43;100418.28;5035913;28;1265;-48
2023/06/27 01:40:02;;;;;;;;;;;;;;;16.52;54.67;100423.53;5014906;28;1284;-48
2023/06/27 01:42:30;;;;;;;;;;;;;;;16.41;54.52;100416.44;5057657;28;1091;-48
2023/06/27 01:44:55;;;;;;;;;;;;;;;16.37;54.62;100424.44;5028732;28;1135;-47
2023/06/27 01:47:21;;;;;;;;;;;;;;;17.12;56.83;100425.41;5024491;28;1187;-47
2023/06/27 01:49:47;;;;;;;;;;;;;;;17.54;56.91;100434.16;5028305;28;1902;-46
2023/06/27 01:52:12;;;;;;;;;;;;;;;17.16;56.56;100425.66;5055589;28;1108;-50
2023/06/27 01:54:41;;;;;;;;;;;;;;;16.91;56.25;100431.06;5057405;28;1033;-52
2023/06/27 01:57:07;;;;;;;;;;;;;;;16.85;55.98;100425.84;5038868;28;1080;-50
2023/06/27 01:59:33;;;;;;;;;;;;;;;16.73;55.27;100427.00;5039655;28;1318;-52
2023/06/27 02:01:58;;;;;;;;;;;;;;;16.68;55.19;100428.97;5025775;28;1187;-48
2023/06/27 02:04:24;;;;;;;;;;;;;;;16.53;55.38;100427.91;5028112;28;1301;-50
2023/06/27 02:06:49;;;;;;;;;;;;;;;16.65;54.65;100421.25;5055622;28;1119;-51
2023/06/27 02:09:15;;;;;;;;;;;;;;;16.59;54.59;100424.06;5027639;28;1032;-47
2023/06/27 02:11:41;;;;;;;;;;;;;;;16.59;54.26;100426.81;5026780;28;1995;-50
2023/06/27 02:14:07;;;;;;;;;;;;;;;16.55;54.45;100422.97;5027331;28;1311;-52
2023/06/27 02:16:32;;;;;;;;;;;;;;;16.83;55.79;100430.78;5037003;28;1202;-52
2023/06/27 02:18:58;;;;;;;;;;;;;;;17.68;57.16;100420.56;5057113;28;1131;-51
2023/06/27 02:21:25;;;;;;;;;;;;;;;17.22;56.83;100416.25;5056543;28;1163;-47
2023/06/27 02:23:51;;;;;;;;;;;;;;;17.02;56.34;100420.78;5038950;28;1108;-45
2023/06/27 02:26:17;;;;;;;;;;;;;;;16.97;55.87;100425.50;5043706;28;1131;-48
2023/06/27 02:28:42;;;;;;;;;;;;;;;16.88;55.21;100430.75;5056459;28;1107;-49
2023/06/27 02:31:10;;;;;;;;;;;;;;;16.66;55.39;100422.91;5038634;28;1910;-48
2023/06/27 02:33:36;;;;;;;;;;;;;;;16.71;55.06;100422.91;5057495;28;1110;-51
2023/06/27 02:36:01;;;;;;;;;;;;;;;16.61;54.98;100418.28;5055935;28;1044;-50
2023/06/27 02:38:27;;;;;;;;;;;;;;;16.58;54.62;100427.09;5045477;28;1091;-47
2023/06/27 02:40:52;;;;;;;;;;;;;;;16.61;54.53;100426.50;5054866;28;1123;-50
2023/06/27 02:43:18;;;;;;;;;;;;;;;16.57;54.46;100425.44;5056775;28;1146;-48
2023/06/27 02:45:43;;;;;;;;;;;;;;;16.50;54.41;100438.66;5020701;28;1037;-50
2023/06/27 02:48:10;;;;;;;;;;;;;;;16.49;54.54;100429.56;5020319;28;1175;-46
2023/06/27 02:50:35;;;;;;;;;;;;;;;16.56;55.57;100440.25;5056507;28;1969;-47
2023/06/27 02:53:01;;;;;;;;;;;;;;;17.65;56.88;100441.19;5056319;28;1083;-50
2023/06/27 02:55:26;;;;;;;;;;;;;;;17.29;56.74;100438.75;5038571;28;1562;-50
2023/06/27 02:57:52;;;;;;;;;;;;;;;17.01;56.52;100443.91;5055522;28;1238;-49
2023/06/27 03:00:19;;;;;;;;;;;;;;;16.89;56.00;100435.19;5037910;28;1262;-50
2023/06/27 03:02:44;;;;;;;;;;;;;;;16.88;55.50;100442.59;5056409;28;1190;-47
2023/06/27 03:05:10;;;;;;;;;;;;;;;16.70;55.66;100438.53;5038239;28;1308;-50
2023/06/27 03:07:36;;;;;;;;;;;;;;;16.67;55.35;100441.84;5038561;28;1223;-48
2023/06/27 03:10:02;;;;;;;;;;;;;;;16.71;54.92;100440.19;5056208;28;1911;-49
2023/06/27 03:12:29;;;;;;;;;;;;;;;16.65;54.72;100443.22;5038289;28;1336;-50
2023/06/27 03:14:55;;;;;;;;;;;;;;;16.63;54.61;100446.25;5033420;28;1369;-49
2023/06/27 03:17:21;;;;;;;;;;;;;;;16.57;54.61;100448.19;5030203;28;1323;-46
2023/06/27 03:19:47;;;;;;;;;;;;;;;16.49;54.72;100440.56;5056238;28;1171;-50
2023/06/27 03:22:14;;;;;;;;;;;;;;;16.53;54.37;100447.13;5038545;28;1364;-46
2023/06/27 03:24:40;;;;;;;;;;;;;;;16.47;54.53;100453.75;5038006;28;1227;-47
2023/06/27 03:27:05;;;;;;;;;;;;;;;16.68;55.42;100448.97;5044384;28;1107;-49
2023/06/27 03:29:34;;;;;;;;;;;;;;;17.71;56.62;100442.81;5036560;28;1421;-49
2023/06/27 03:32:00;;;;;;;;;;;;;;;17.32;56.65;100446.44;5038252;28;1906;-50
2023/06/27 03:34:27;;;;;;;;;;;;;;;17.04;56.22;100446.06;5037929;28;1231;-48
2023/06/27 03:36:52;;;;;;;;;;;;;;;16.99;55.85;100450.78;5034243;28;1312;-54
2023/06/27 03:39:18;;;;;;;;;;;;;;;16.82;55.79;100442.88;5027656;28;1139;-50
2023/06/27 03:41:46;;;;;;;;;;;;;;;16.79;55.16;100455.25;5037586;28;1160;-54
2023/06/27 03:44:12;;;;;;;;;;;;;;;16.67;55.06;100447.34;5038136;28;1092;-50
2023/06/27 03:46:37;;;;;;;;;;;;;;;16.65;55.06;100455.03;5038173;28;1306;-50
2023/06/27 03:49:04;;;;;;;;;;;;;;;16.70;54.65;100452.25;5037194;28;1325;-51
2023/06/27 03:51:31;;;;;;;;;;;;;;;16.66;54.50;100445.72;5034900;28;1969;-51
2023/06/27 03:53:58;;;;;;;;;;;;;;;16.55;54.79;100455.91;5028322;28;1128;-54
2023/06/27 03:56:24;;;;;;;;;;;;;;;16.42;54.87;100456.50;5055928;28;1139;-53
2023/06/27 03:58:50;;;;;;;;;;;;;;;16.53;54.61;100457.28;5038129;28;1080;-48
2023/06/27 04:01:16;;;;;;;;;;;;;;;16.59;54.23;100461.66;5026884;28;1315;-46
2023/06/27 04:03:42;;;;;;;;;;;;;;;16.50;54.50;100460.59;5055737;28;1080;-49
2023/06/27 04:06:08;;;;;;;;;;;;;;;16.51;54.44;100464.97;5055779;28;1143;-44
2023/06/27 04:08:34;;;;;;;;;;;;;;;17.43;56.65;100475.47;5037809;28;1151;-47
2023/06/27 04:10:59;;;;;;;;;;;;;;;17.40;56.66;100469.72;5058275;28;1972;-47
2023/06/27 04:13:25;;;;;;;;;;;;;;;17.01;56.85;100474.13;5059447;28;1084;-48
2023/06/27 04:15:50;;;;;;;;;;;;;;;16.89;56.34;100465.41;5059554;28;1087;-46
2023/06/27 04:18:16;;;;;;;;;;;;;;;16.84;55.89;100473.63;5040954;28;1056;-46
2023/06/27 04:20:42;;;;;;;;;;;;;;;16.84;55.33;100468.13;5041389;28;1103;-45
2023/06/27 04:23:08;;;;;;;;;;;;;;;16.82;55.15;100470.34;5041438;28;1248;-48
2023/06/27 04:25:35;;;;;;;;;;;;;;;16.76;55.05;100464.06;5040756;28;1147;-45
2023/06/27 04:28:02;;;;;;;;;;;;;;;16.68;55.05;100467.41;5028066;28;1554;-46
2023/06/27 04:30:28;;;;;;;;;;;;;;;16.58;55.06;100471.00;5058960;28;1902;-43
2023/06/27 04:32:53;;;;;;;;;;;;;;;16.56;55.17;100474.03;5039692;28;1025;-47
2023/06/27 04:35:19;;;;;;;;;;;;;;;16.60;54.81;100482.50;5051534;28;1544;-50
2023/06/27 04:37:45;;;;;;;;;;;;;;;16.49;54.87;100480.91;5052813;28;1088;-51
2023/06/27 04:40:11;;;;;;;;;;;;;;;16.60;54.33;100483.31;5050921;28;1025;-51
2023/06/27 04:42:37;;;;;;;;;;;;;;;16.54;54.62;100480.91;5058494;28;1112;-47
2023/06/27 04:45:02;;;;;;;;;;;;;;;16.49;54.67;100481.72;5058860;28;1146;-49
2023/06/27 04:47:28;;;;;;;;;;;;;;;16.48;54.76;100471.03;5058558;28;1020;-48
2023/06/27 04:49:53;;;;;;;;;;;;;;;16.39;54.96;100470.78;5058125;28;1906;-48
2023/06/27 04:52:19;;;;;;;;;;;;;;;16.48;54.75;100476.50;5045322;28;1164;-46
2023/06/27 04:54:49;;;;;;;;;;;;;;;17.23;54.76;100467.38;5046528;28;1138;-50
2023/06/27 04:57:17;;;;;;;;;;;;;;;16.43;55.56;100475.44;5057415;28;1083;-49
2023/06/27 04:59:43;;;;;;;;;;;;;;;16.16;54.54;100469.47;5040950;28;1251;-47
2023/06/27 05:02:08;;;;;;;;;;;;;;;16.04;53.80;100476.09;5052192;28;1055;-50
2023/06/27 05:04:34;;;;;;;;;;;;;;;16.04;52.98;100476.09;5051421;28;1132;-52
2023/06/27 05:06:59;;;;;;;;;;;;;;;15.94;52.71;100472.56;5058547;28;1324;-48
2023/06/27 05:09:25;;;;;;;;;;;;;;;15.95;52.18;100472.28;5058225;28;1063;-47
2023/06/27 05:11:50;;;;;;;;;;;;;;;15.82;52.00;100478.31;5058276;28;1965;-47
2023/06/27 05:14:16;;;;;;;;;;;;;;;15.89;51.85;100476.09;5057900;28;1020;-48
2023/06/27 05:16:41;;;;;;;;;;;;;;;15.90;51.69;100480.50;5045020;28;1114;-47
2023/06/27 05:19:07;;;;;;;;;;;;;;;15.82;51.61;100483.78;5058688;28;1163;-49
2023/06/27 05:21:32;;;;;;;;;;;;;;;15.89;51.13;100482.44;5057544;28;1076;-50
2023/06/27 05:23:58;;;;;;;;;;;;;;;15.86;51.14;100487.63;5057981;28;1434;-50
2023/06/27 05:26:24;;;;;;;;;;;;;;;15.87;51.07;100490.09;5057942;28;1027;-49
2023/06/27 05:28:50;;;;;;;;;;;;;;;15.84;51.07;100495.31;5057696;28;1039;-50
2023/06/27 05:31:15;;;;;;;;;;;;;;;15.83;50.82;100494.47;5057485;28;1971;-45
2023/06/27 05:33:41;;;;;;;;;;;;;;;15.87;50.54;100494.78;5058704;28;1051;-48
2023/06/27 05:36:06;;;;;;;;;;;;;;;15.86;50.74;100493.13;5057807;28;1040;-46
2023/06/27 05:38:32;;;;;;;;;;;;;;;15.79;50.75;100503.50;5057863;28;1064;-48
2023/06/27 05:40:57;;;;;;;;;;;;;;;15.83;50.57;100504.63;5057457;28;1136;-48
2023/06/27 05:43:23;;;;;;;;;;;;;;;15.91;50.52;100506.84;5057821;28;1051;-47
2023/06/27 05:45:48;;;;;;;;;;;;;;;15.81;50.66;100498.59;5057580;28;1075;-51
2023/06/27 05:48:14;;;;;;;;;;;;;;;15.89;50.54;100496.13;5053267;28;1549;-47
2023/06/27 05:50:39;;;;;;;;;;;;;;;15.86;50.36;100499.41;5057325;28;1909;-45
2023/06/27 05:53:05;;;;;;;;;;;;;;;15.85;50.55;100496.94;5057216;28;1056;-46
2023/06/27 05:55:30;;;;;;;;;;;;;;;15.79;50.38;100496.13;5056617;28;1123;-47
2023/06/27 05:57:56;;;;;;;;;;;;;;;15.94;50.14;100494.50;5039415;28;1028;-46
2023/06/27 06:00:21;;;;;;;;;;;;;;;15.92;50.09;100497.47;5056891;28;1043;-44
2023/06/27 06:02:47;;;;;;;;;;;;;;;15.88;50.50;100493.69;5056775;28;872;-47
2023/06/27 06:05:14;;;;;;;;;;;;;;;15.87;50.41;100492.84;5056561;28;1016;-49
2023/06/27 06:07:41;;;;;;;;;;;;;;;15.85;50.07;100492.31;5057374;28;1147;-50
2023/06/27 06:10:08;;;;;;;;;;;;;;;15.89;50.35;100503.53;5056833;28;1905;-48
2023/06/27 06:12:33;;;;;;;;;;;;;;;15.88;50.14;100502.72;5056885;28;1108;-52
2023/06/27 06:14:59;;;;;;;;;;;;;;;15.83;50.41;100494.47;5056597;28;921;-49
2023/06/27 06:17:24;;;;;;;;;;;;;;;15.91;50.02;100491.19;5043488;28;1388;-48
2023/06/27 06:19:50;;;;;;;;;;;;;;;15.91;50.02;100493.13;5057199;28;1203;-46
2023/06/27 06:22:15;;;;;;;;;;;;;;;15.93;50.03;100487.34;5056823;28;1029;-48
2023/06/27 06:24:41;;;;;;;;;;;;;;;15.81;50.34;100499.44;5056616;28;1076;-50
2023/06/27 06:27:07;;;;;;;;;;;;;;;15.94;50.02;100497.25;5056678;28;1095;-48
2023/06/27 06:29:32;;;;;;;;;;;;;;;15.99;49.92;100502.69;5056735;28;1128;-51
2023/06/27 06:31:58;;;;;;;;;;;;;;;16.02;49.79;100502.13;5053612;28;2046;-49
2023/06/27 06:34:23;;;;;;;;;;;;;;;15.97;49.87;100499.41;5045055;28;1167;-50
2023/06/27 06:36:49;;;;;;;;;;;;;;;15.98;49.76;100499.13;5056230;28;1124;-50
2023/06/27 06:39:14;;;;;;;;;;;;;;;15.91;49.89;100493.94;5056343;28;1052;-52
2023/06/27 06:41:39;;;;;;;;;;;;;;;15.92;49.90;100489.25;5056470;28;1135;-53
2023/06/27 06:44:09;;;;;;;;;;;;;;;15.90;50.00;100491.47;5038569;28;1206;-50
2023/06/27 06:46:36;;;;;;;;;;;;;;;16.00;49.92;100498.88;5049003;28;1095;-50
2023/06/27 06:49:01;;;;;;;;;;;;;;;15.91;50.03;100491.19;5049692;28;1094;-53
2023/06/27 06:51:27;;;;;;;;;;;;;;;16.00;49.92;100491.44;5052164;28;1986;-49
2023/06/27 06:53:52;;;;;;;;;;;;;;;16.00;49.55;100488.69;5055373;28;1391;-47
2023/06/27 06:56:18;;;;;;;;;;;;;;;15.98;49.59;100499.13;5056364;28;1079;-46
2023/06/27 06:58:43;;;;;;;;;;;;;;;16.02;49.44;100502.13;5055714;28;1510;-48
2023/06/27 07:01:09;;;;;;;;;;;;;;;15.96;49.75;100497.78;5056036;28;1171;-47
2023/06/27 07:03:34;;;;;;;;;;;;;;;16.01;49.84;100498.59;5055638;28;1139;-47
2023/06/27 07:06:00;;;;;;;;;;;;;;;16.04;49.75;100500.75;5055673;28;1016;-47
2023/06/27 07:08:25;;;;;;;;;;;;;;;16.00;49.54;100490.63;5054455;28;1342;-47
2023/06/27 07:10:51;;;;;;;;;;;;;;;16.01;49.92;100493.09;5055663;28;1984;-50
2023/06/27 07:13:16;;;;;;;;;;;;;;;16.02;49.76;100504.88;5055758;28;1110;-46
2023/06/27 07:15:42;;;;;;;;;;;;;;;15.96;49.63;100504.06;5055577;28;1143;-47
2023/06/27 07:18:08;;;;;;;;;;;;;;;15.94;49.68;100505.47;5055075;28;1305;-51
2023/06/27 07:20:33;;;;;;;;;;;;;;;15.96;49.65;100500.50;5056425;28;1424;-47
2023/06/27 07:22:59;;;;;;;;;;;;;;;16.04;49.44;100514.47;5055539;28;1064;-47
2023/06/27 07:25:24;;;;;;;;;;;;;;;16.01;49.83;100500.50;5055784;28;1340;-49
2023/06/27 07:27:50;;;;;;;;;;;;;;;16.06;49.38;100503.22;5054307;28;1474;-46
2023/06/27 07:30:16;;;;;;;;;;;;;;;16.05;49.40;100509.84;5055424;28;1977;-43
2023/06/27 07:32:41;;;;;;;;;;;;;;;16.02;49.21;100500.22;5055574;28;1467;-45
2023/06/27 07:35:07;;;;;;;;;;;;;;;16.08;49.33;100501.84;5056257;28;1178;-48
2023/06/27 07:37:32;;;;;;;;;;;;;;;15.96;49.70;100504.06;5054256;28;1427;-45
2023/06/27 07:39:58;;;;;;;;;;;;;;;16.02;49.34;100505.72;5055503;28;916;-47
2023/06/27 07:42:24;;;;;;;;;;;;;;;16.04;49.16;100500.75;5055631;28;1127;-47
2023/06/27 07:44:49;;;;;;;;;;;;;;;16.08;49.05;100506.53;5057103;28;1047;-46
2023/06/27 07:47:15;;;;;;;;;;;;;;;16.05;49.22;100513.38;5059539;28;1108;-48
2023/06/27 07:49:40;;;;;;;;;;;;;;;16.14;49.09;100510.09;5059836;28;1116;-48
2023/06/27 07:52:07;;;;;;;;;;;;;;;16.05;49.11;100498.88;5060086;28;1981;-46
2023/06/27 07:54:33;;;;;;;;;;;;;;;16.13;49.30;100508.44;5041857;28;1218;-50
2023/06/27 07:56:58;;;;;;;;;;;;;;;16.10;49.06;100509.00;5058969;28;1480;-46
2023/06/27 07:59:24;;;;;;;;;;;;;;;16.07;49.26;100505.72;5058991;28;1032;-47
2023/06/27 08:01:49;;;;;;;;;;;;;;;16.08;49.24;100503.78;5059314;28;1084;-52
2023/06/27 08:04:15;;;;;;;;;;;;;;;16.12;49.09;100506.78;5059387;28;1159;-45
2023/06/27 08:06:41;;;;;;;;;;;;;;;16.05;49.21;100507.91;5059311;28;1195;-48
2023/06/27 08:09:06;;;;;;;;;;;;;;;16.10;49.19;100517.22;5058890;28;1352;-49
2023/06/27 08:11:32;;;;;;;;;;;;;;;16.06;49.22;100506.81;5059072;28;1973;-45
2023/06/27 08:13:57;;;;;;;;;;;;;;;16.14;49.15;100515.56;5059574;28;1321;-48
2023/06/27 08:16:23;;;;;;;;;;;;;;;16.07;49.02;100504.88;5059544;28;1195;-48
2023/06/27 08:18:48;;;;;;;;;;;;;;;16.03;49.60;100504.63;5059099;28;1206;-47
2023/06/27 08:21:14;;;;;;;;;;;;;;;16.13;49.00;100511.19;5059069;28;1180;-51
2023/06/27 08:23:39;;;;;;;;;;;;;;;16.08;49.21;100501.03;5059016;28;1114;-51
2023/06/27 08:26:05;;;;;;;;;;;;;;;16.06;49.18;100504.06;5059202;28;1198;-48
2023/06/27 08:28:31;;;;;;;;;;;;;;;16.08;49.36;100514.75;5058813;28;977;-46
2023/06/27 08:30:56;;;;;;;;;;;;;;;16.12;49.37;100506.78;5045123;28;1906;-48
2023/06/27 08:33:22;;;;;;;;;;;;;;;16.14;49.29;100504.59;5059162;28;1064;-47
2023/06/27 08:35:48;;;;;;;;;;;;;;;16.13;49.17;100513.91;5037501;28;1391;-51
2023/06/27 08:38:14;;;;;;;;;;;;;;;16.08;49.16;100507.34;5058251;28;1008;-48
2023/06/27 08:40:40;;;;;;;;;;;;;;;16.09;49.25;100508.19;5058286;28;970;-47
2023/06/27 08:43:06;;;;;;;;;;;;;;;16.11;49.45;100505.97;5040899;28;1253;-49
2023/06/27 08:45:35;;;;;;;;;;;;;;;16.08;49.20;100501.84;5058173;28;1130;-50
2023/06/27 08:48:01;;;;;;;;;;;;;;;16.10;49.41;100509.81;5058237;28;1210;-48
2023/06/27 08:50:26;;;;;;;;;;;;;;;16.11;49.40;100505.97;5057638;28;2030;-46
2023/06/27 08:52:55;;;;;;;;;;;;;;;16.15;49.35;100507.06;5033247;28;885;-46
2023/06/27 08:55:41;;;;;;;;;;;;;;;16.16;49.21;100499.66;5053013;28;1056;-46
2023/06/27 08:58:08;;;;;;;;;;;;;;;16.13;49.46;100497.47;5039955;28;1180;-48
2023/06/27 09:00:34;;;;;;;;;;;;;;;16.06;49.21;100495.84;5057778;28;1250;-49
2023/06/27 09:02:59;;;;;;;;;;;;;;;16.11;49.41;100505.97;5040055;28;1156;-50
2023/06/27 09:05:25;;;;;;;;;;;;;;;16.10;49.34;100503.50;5025517;28;1041;-46
2023/06/27 09:07:50;;;;;;;;;;;;;;;16.11;49.34;100499.69;5037908;28;993;-51
2023/06/27 09:10:16;;;;;;;;;;;;;;;16.12;49.30;100502.13;5057647;28;1902;-49
2023/06/27 09:12:43;;;;;;;;;;;;;;;16.07;49.36;100505.72;5058258;28;1079;-46
2023/06/27 09:15:10;;;;;;;;;;;;;;;16.08;49.43;100501.03;5044105;28;1006;-48
2023/06/27 09:17:36;;;;;;;;;;;;;;;16.06;49.36;100493.09;5027239;28;1045;-49
2023/06/27 09:20:02;;;;;;;;;;;;;;;16.18;49.21;100500.22;5039978;28;1235;-48
2023/06/27 09:22:27;;;;;;;;;;;;;;;16.18;49.37;100494.72;5057372;28;1183;-48
2023/06/27 09:25:11;;;;;;;;;;;;;;;16.13;49.27;100492.81;5056490;28;1463;-54
2023/06/27 09:27:37;;;;;;;;;;;;;;;16.12;49.25;100493.91;5057710;28;1222;-46
2023/06/27 09:30:03;;;;;;;;;;;;;;;16.21;49.10;100489.47;5057027;28;1898;-53
2023/06/27 09:32:28;;;;;;;;;;;;;;;16.25;49.02;100489.75;5057575;28;1155;-50
2023/06/27 09:34:54;;;;;;;;;;;;;;;16.21;49.38;100485.94;5039922;28;1028;-51
2023/06/27 09:37:20;;;;;;;;;;;;;;;16.15;49.50;100492.53;5057111;28;987;-52
2023/06/27 09:39:45;;;;;;;;;;;;;;;16.22;49.38;100479.34;5057464;28;1203;-50
2023/06/27 09:42:11;;;;;;;;;;;;;;;16.19;49.49;100486.22;5056991;28;1066;-49
2023/06/27 09:44:36;;;;;;;;;;;;;;;16.19;49.48;100474.44;5057776;28;1156;-53
2023/06/27 09:47:03;;;;;;;;;;;;;;;16.18;49.37;100472.78;5057595;28;1120;-53
2023/06/27 09:49:29;;;;;;;;;;;;;;;16.26;49.02;100480.44;5067168;28;1096;-49
2023/06/27 09:51:55;;;;;;;;;;;;;;;16.22;49.20;100466.44;5059325;28;1906;-47
2023/06/27 09:54:21;;;;;;;;;;;;;;;16.30;49.15;100469.72;5039754;28;1141;-53
2023/06/27 09:56:52;;;;;;;;;;;;;;;16.30;49.07;100488.91;5044488;28;1079;-51
2023/06/27 09:59:22;;;;;;;;;;;;;;;16.18;49.38;100481.00;5057273;28;1151;-55
2023/06/27 10:01:49;;;;;;;;;;;;;;;16.30;49.25;100475.19;5043985;28;1148;-49
2023/06/27 10:04:14;;;;;;;;;;;;;;;16.20;49.54;100485.13;5057049;28;1035;-51
2023/06/27 10:06:40;;;;;;;;;;;;;;;16.21;49.19;100477.69;5056730;28;1139;-51
2023/06/27 10:09:06;;;;;;;;;;;;;;;16.22;49.54;100482.09;5056754;28;1108;-54
2023/06/27 10:11:31;;;;;;;;;;;;;;;16.20;49.34;100476.03;5056681;28;2002;-52
2023/06/27 10:13:56;;;;;;;;;;;;;;;16.21;49.48;100489.47;5056624;28;1086;-48
2023/06/27 10:16:22;;;;;;;;;;;;;;;16.29;49.35;100474.38;5039370;28;1104;-49
2023/06/27 10:18:47;;;;;;;;;;;;;;;16.24;49.38;100472.50;5056753;28;1191;-52
2023/06/27 10:21:13;;;;;;;;;;;;;;;16.33;49.07;100469.19;5056890;28;1028;-48
2023/06/27 10:23:39;;;;;;;;;;;;;;;16.29;49.58;100463.41;5038993;28;1055;-45
2023/06/27 10:26:04;;;;;;;;;;;;;;;16.25;49.47;100445.88;5057113;28;1144;-51
2023/06/27 10:28:33;;;;;;;;;;;;;;;16.39;49.42;100474.34;5055998;28;1120;-52
2023/06/27 10:30:58;;;;;;;;;;;;;;;16.28;49.45;100475.47;5056397;28;1918;-52
2023/06/27 10:33:31;;;;;;;;;;;;;;;16.23;49.67;100475.50;5056456;28;1115;-54
2023/06/27 10:35:58;;;;;;;;;;;;;;;16.29;49.51;100463.41;5056233;28;1079;-46
2023/06/27 10:38:23;;;;;;;;;;;;;;;16.33;49.37;100467.25;5056574;28;1092;-51
2023/06/27 10:40:58;;;;;;;;;;;;;;;16.32;49.34;100457.34;5038618;28;1311;-49
2023/06/27 10:43:39;;;;;;;;;;;;;;;16.35;49.26;100456.78;5056517;28;1096;-47
2023/06/27 10:46:05;;;;;;;;;;;;;;;16.33;48.84;100453.53;5055998;28;1088;-47
2023/06/27 10:48:32;;;;;;;;;;;;;;;16.28;48.98;100461.75;5056535;28;1040;-49
2023/06/27 10:51:07;;;;;;;;;;;;;;;16.30;49.12;100462.31;5056175;28;1929;-49
2023/06/27 10:53:32;;;;;;;;;;;;;;;16.25;49.05;100462.31;5055706;28;1172;-46
2023/06/27 10:56:01;;;;;;;;;;;;;;;16.23;49.12;100453.56;5038432;28;1339;-47
2023/06/27 10:58:27;;;;;;;;;;;;;;;16.30;48.78;100458.72;5037791;28;1341;-53
2023/06/27 11:00:52;;;;;;;;;;;;;;;16.34;48.77;100455.16;5038267;28;1176;-53
2023/06/27 11:03:19;;;;;;;;;;;;;;;16.33;49.05;100459.00;5056028;28;1142;-49
2023/06/27 11:05:49;;;;;;;;;;;;;;;16.30;48.90;100450.50;5045024;28;919;-52
2023/06/27 11:08:18;;;;;;;;;;;;;;;16.34;48.61;100463.41;5041937;28;1155;-52
2023/06/27 11:10:53;;;;;;;;;;;;;;;16.41;48.70;100461.19;5035183;28;1973;-49
2023/06/27 11:13:21;;;;;;;;;;;;;;;16.33;48.89;100459.00;5040853;28;1127;-51
2023/06/27 11:15:47;;;;;;;;;;;;;;;16.37;48.85;100449.13;5055987;28;1056;-53
2023/06/27 11:18:13;;;;;;;;;;;;;;;16.27;49.03;100448.31;5036806;28;939;-52
2023/06/27 11:20:40;;;;;;;;;;;;;;;16.30;48.73;100454.09;5053459;28;1084;-48
2023/06/27 11:23:05;;;;;;;;;;;;;;;16.29;48.81;100452.44;5045426;28;1084;-49
2023/06/27 11:25:37;;;;;;;;;;;;;;;16.25;48.94;100454.09;5062418;28;1118;-50
2023/06/27 11:28:03;;;;;;;;;;;;;;;16.31;48.72;100444.72;5060675;28;1088;-48
2023/06/27 11:30:30;;;;;;;;;;;;;;;16.25;48.81;100443.13;5062024;28;1921;-48
2023/06/27 11:32:55;;;;;;;;;;;;;;;16.26;48.67;100442.03;5058441;28;1034;-49
2023/06/27 11:35:21;;;;;;;;;;;;;;;16.30;48.86;100443.13;5042515;28;1183;-51
2023/06/27 11:37:47;;;;;;;;;;;;;;;16.24;48.91;100439.56;5060092;28;1029;-50
2023/06/27 11:40:18;;;;;;;;;;;;;;;16.24;49.10;100436.81;5044213;28;1107;-51
2023/06/27 11:42:44;;;;;;;;;;;;;;;16.29;48.87;100429.69;5048122;28;1068;-56
2023/06/27 11:45:10;;;;;;;;;;;;;;;16.32;48.72;100427.19;5051078;28;1230;-51
2023/06/27 11:47:35;;;;;;;;;;;;;;;16.35;48.51;100434.84;5060802;28;1052;-47
2023/06/27 11:50:07;;;;;;;;;;;;;;;16.21;48.90;100428.31;5061948;28;1901;-49
2023/06/27 11:52:36;;;;;;;;;;;;;;;16.32;48.75;100429.91;5061794;28;1164;-49
2023/06/27 11:55:02;;;;;;;;;;;;;;;16.29;48.66;100430.50;5049369;28;1019;-51
2023/06/27 11:57:41;;;;;;;;;;;;;;;16.30;48.67;100436.78;5055848;28;1083;-52
2023/06/27 12:00:12;;;;;;;;;;;;;;;16.29;48.87;100430.50;5056758;28;1106;-48
2023/06/27 12:02:37;;;;;;;;;;;;;;;16.31;48.84;100428.28;5062500;28;1187;-52
2023/06/27 12:05:03;;;;;;;;;;;;;;;16.37;48.82;100438.16;5061676;28;1210;-53
2023/06/27 12:07:28;;;;;;;;;;;;;;;16.34;48.89;100432.38;5061995;28;1113;-51
2023/06/27 12:10:06;;;;;;;;;;;;;;;16.33;48.93;100423.34;5061762;28;1232;-51
2023/06/27 12:12:38;;;;;;;;;;;;;;;16.34;48.98;100421.41;5061389;28;1092;-51
2023/06/27 12:15:10;;;;;;;;;;;;;;;16.37;49.10;100427.16;5044951;28;1021;-52
2023/06/27 12:17:36;;;;;;;;;;;;;;;16.37;49.00;100426.34;5061353;28;1152;-53
2023/06/27 12:20:02;;;;;;;;;;;;;;;16.36;49.09;100419.22;5062206;28;1079;-51
2023/06/27 12:22:27;;;;;;;;;;;;;;;16.36;48.95;100411.78;5062163;28;1012;-50
2023/06/27 12:24:53;;;;;;;;;;;;;;;16.39;49.15;100408.47;5062465;28;1273;-47
2023/06/27 12:27:18;;;;;;;;;;;;;;;16.39;48.98;100405.75;5061909;28;1084;-54
2023/06/27 12:29:44;;;;;;;;;;;;;;;16.29;49.18;100411.28;5061969;28;1151;-55
2023/06/27 12:32:09;;;;;;;;;;;;;;;16.47;48.96;100415.31;5058869;28;1982;-47
2023/06/27 12:34:35;;;;;;;;;;;;;;;16.39;49.20;100415.91;5058924;28;992;-46
2023/06/27 12:37:00;;;;;;;;;;;;;;;16.42;49.20;100410.69;5058792;28;1068;-49
2023/06/27 12:39:26;;;;;;;;;;;;;;;16.40;49.13;100417.56;5058721;28;1021;-47
2023/06/27 12:41:52;;;;;;;;;;;;;;;16.38;49.25;100406.88;5053955;28;1088;-49
2023/06/27 12:44:17;;;;;;;;;;;;;;;16.40;49.02;100401.91;5049503;28;1125;-50